Time;durP1;ratioP1;P1;durP2;ratioP2;P2;SDS_P1;SDS_P2;PMS_P1;PMS_P2;Temp;Humidity;BMP_temperature;BMP_pressure;BME280_temperature;BME280_humidity;BME280_pressure;Samples;Min_cycle;Max_cycle;Signal;HPM_P1;HPM_P2
2023/04/01 00:00:28;;;;;;;7.45;3.60;;;9.80;99.90;;;;;;5065804;28;20050;-63
2023/04/01 00:02:53;;;;;;;17.88;4.43;;;9.80;99.90;;;;;;5065285;28;20060;-63
2023/04/01 00:05:19;;;;;;;5.82;3.70;;;9.80;99.90;;;;;;5066426;28;20032;-63
2023/04/01 00:07:45;;;;;;;8.93;3.85;;;9.80;99.90;;;;;;5066136;28;20496;-63
2023/04/01 00:10:15;;;;;;;4.07;3.63;;;9.80;99.90;;;;;;5066417;28;20462;-63
2023/04/01 00:12:40;;;;;;;7.57;4.10;;;9.80;99.90;;;;;;5066555;28;20114;-63
2023/04/01 00:15:09;;;;;;;6.30;4.20;;;9.80;99.90;;;;;;5066578;28;20045;-63
2023/04/01 00:17:35;;;;;;;7.22;3.92;;;9.80;99.90;;;;;;5065654;28;20403;-63
2023/04/01 00:20:02;;;;;;;9.68;4.05;;;9.80;99.90;;;;;;5067090;28;20468;-63
2023/04/01 00:22:28;;;;;;;8.23;3.83;;;9.80;99.90;;;;;;5065689;28;20055;-63
2023/04/01 00:24:54;;;;;;;10.30;4.25;;;9.80;99.90;;;;;;5066692;28;20525;-63
2023/04/01 00:27:20;;;;;;;8.52;4.05;;;9.80;99.90;;;;;;5066037;28;20068;-63
2023/04/01 00:29:47;;;;;;;5.50;4.25;;;9.80;99.90;;;;;;5070022;28;20127;-63
2023/04/01 00:32:14;;;;;;;7.47;3.80;;;9.80;99.90;;;;;;5070292;28;20048;-63
2023/04/01 00:34:40;;;;;;;4.63;3.70;;;9.80;99.90;;;;;;5069909;28;20502;-63
2023/04/01 00:37:07;;;;;;;11.23;3.90;;;9.80;99.90;;;;;;5070387;28;20094;-63
2023/04/01 00:39:34;;;;;;;7.22;4.30;;;9.80;99.90;;;;;;5044356;28;20095;-63
2023/04/01 00:42:00;;;;;;;6.05;3.90;;;9.80;99.90;;;;;;5068491;28;20482;-63
2023/04/01 00:44:29;;;;;;;8.32;4.32;;;9.80;99.90;;;;;;5069952;28;20044;-63
2023/04/01 00:46:55;;;;;;;7.55;3.90;;;9.80;99.90;;;;;;5068782;28;20543;-63
2023/04/01 00:49:29;;;;;;;4.53;4.10;;;9.80;99.90;;;;;;5052505;28;20048;-63
2023/04/01 00:51:57;;;;;;;7.78;5.35;;;9.80;99.90;;;;;;5069872;28;20052;-63
2023/04/01 00:54:25;;;;;;;6.82;4.15;;;9.80;99.90;;;;;;5052315;28;20032;-63
2023/04/01 00:56:56;;;;;;;10.80;4.53;;;9.80;99.90;;;;;;5051018;28;20051;-63
2023/04/01 00:59:29;;;;;;;7.38;4.25;;;9.80;99.90;;;;;;5039491;28;20070;-63
2023/04/01 01:01:55;;;;;;;6.75;4.10;;;9.80;99.90;;;;;;5069274;28;20119;-63
2023/04/01 01:04:33;;;;;;;6.55;4.00;;;9.80;99.90;;;;;;5069749;28;20045;-63
2023/04/01 01:07:05;;;;;;;4.70;4.25;;;9.80;99.90;;;;;;5069714;28;20566;-63
2023/04/01 01:10:11;;;;;;;6.72;4.43;;;9.80;99.90;;;;;;5065983;28;20037;-63
2023/04/01 01:12:41;;;;;;;9.90;4.13;;;9.80;99.90;;;;;;5034712;28;20053;-63
2023/04/01 01:15:11;;;;;;;6.85;4.53;;;9.80;99.90;;;;;;5035494;28;20123;-63
2023/04/01 01:17:43;;;;;;;;;;;9.80;99.90;;;;;;5069510;28;20051;-63
2023/04/01 01:20:33;;;;;;;5.00;4.38;;;9.80;99.90;;;;;;5069776;28;19971;-63
2023/04/01 01:23:40;;;;;;;8.45;4.65;;;9.80;99.90;;;;;;5068659;28;20127;-63
2023/04/01 01:26:39;;;;;;;9.07;5.13;;;9.80;99.90;;;;;;4966402;28;20059;-63
2023/04/01 01:29:29;;;;;;;5.25;4.75;;;9.80;99.90;;;;;;5051323;28;20061;-63
2023/04/01 01:32:19;;;;;;;11.45;5.25;;;9.80;99.90;;;;;;5050779;28;20554;-63
2023/04/01 01:34:55;;;;;;;5.60;5.00;;;9.80;99.90;;;;;;5066171;28;20040;-63
2023/04/01 01:37:27;;;;;;;8.88;5.18;;;9.80;99.90;;;;;;5069886;28;20040;-63
2023/04/01 01:40:01;;;;;;;8.38;5.07;;;9.80;99.90;;;;;;5068227;28;20044;-63
2023/04/01 01:42:31;;;;;;;6.50;4.88;;;9.80;99.90;;;;;;5051055;28;20051;-64
2023/04/01 01:44:59;;;;;;;9.43;5.97;;;9.70;99.90;;;;;;5068965;28;20041;-63
2023/04/01 01:47:26;;;;;;;6.80;5.93;;;9.80;99.90;;;;;;5069077;28;20098;-63
2023/04/01 01:49:54;;;;;;;6.63;5.25;;;9.80;99.90;;;;;;5068742;28;20461;-63
2023/04/01 01:52:21;;;;;;;8.43;5.35;;;9.80;99.90;;;;;;5068195;28;20040;-63
2023/04/01 01:54:51;;;;;;;7.32;5.60;;;9.80;99.90;;;;;;5068865;28;20568;-63
2023/04/01 01:57:23;;;;;;;8.93;5.85;;;9.70;99.90;;;;;;5055246;28;20044;-63
2023/04/01 01:59:52;;;;;;;7.28;6.15;;;9.70;99.90;;;;;;5050659;28;20491;-63
2023/04/01 02:02:19;;;;;;;10.13;6.75;;;9.70;99.90;;;;;;5067985;28;20529;-63
2023/04/01 02:04:46;;;;;;;8.15;6.47;;;9.80;99.90;;;;;;5068435;28;20044;-63
2023/04/01 02:07:24;;;;;;;9.80;6.93;;;9.80;99.90;;;;;;5068778;28;20111;-63
2023/04/01 02:09:50;;;;;;;10.35;6.90;;;9.80;99.90;;;;;;5067940;28;20037;-63
2023/04/01 02:12:17;;;;;;;13.45;7.50;;;9.70;99.90;;;;;;5057201;28;20063;-63
2023/04/01 02:14:52;;;;;;;7.70;6.90;;;9.80;99.90;;;;;;5037190;28;20470;-63
2023/04/01 02:17:20;;;;;;;8.52;6.63;;;9.80;99.90;;;;;;5062882;28;20417;-63
2023/04/01 02:19:54;;;;;;;7.38;6.65;;;9.80;99.90;;;;;;5067963;28;20109;-63
2023/04/01 02:22:24;;;;;;;8.52;7.03;;;9.80;99.90;;;;;;5068714;28;20102;-63
2023/04/01 02:24:54;;;;;;;12.13;7.32;;;9.80;99.90;;;;;;5067328;28;20057;-63
2023/04/01 02:27:20;;;;;;;10.75;6.72;;;9.80;99.90;;;;;;5068149;28;20033;-63
2023/04/01 02:29:46;;;;;;;9.60;7.35;;;9.70;99.90;;;;;;5068183;28;20044;-63
2023/04/01 02:32:14;;;;;;;9.18;7.50;;;9.70;99.90;;;;;;5067785;28;20041;-63
2023/04/01 02:34:40;;;;;;;8.27;7.40;;;9.80;99.90;;;;;;5050077;28;20029;-63
2023/04/01 02:37:07;;;;;;;12.52;7.88;;;9.70;99.90;;;;;;5068131;28;20635;-63
2023/04/01 02:39:32;;;;;;;12.40;7.55;;;9.70;99.90;;;;;;5067738;28;20047;-63
2023/04/01 02:41:58;;;;;;;9.88;8.63;;;9.80;99.90;;;;;;5067829;28;20041;-63
2023/04/01 02:44:24;;;;;;;8.60;7.80;;;9.80;99.90;;;;;;5067285;28;20875;-63
2023/04/01 02:46:50;;;;;;;14.30;8.25;;;9.70;99.90;;;;;;5067844;28;20036;-63
2023/04/01 02:49:15;;;;;;;10.48;7.93;;;9.70;99.90;;;;;;5066459;28;20166;-63
2023/04/01 02:51:41;;;;;;;11.50;8.75;;;9.70;99.90;;;;;;5058436;28;20066;-63
2023/04/01 02:54:07;;;;;;;11.50;8.35;;;9.70;99.90;;;;;;5058725;28;20116;-63
2023/04/01 02:56:32;;;;;;;11.05;7.60;;;9.70;99.90;;;;;;5061462;28;20068;-63
2023/04/01 02:58:58;;;;;;;12.13;8.82;;;9.80;99.90;;;;;;5066112;28;20437;-63
2023/04/01 03:01:24;;;;;;;10.77;8.82;;;9.70;99.90;;;;;;5063042;28;20660;-63
2023/04/01 03:03:50;;;;;;;17.88;8.52;;;9.70;99.90;;;;;;5066939;28;20052;-63
2023/04/01 03:06:16;;;;;;;10.55;8.35;;;9.70;99.90;;;;;;5058608;28;20512;-63
2023/04/01 03:08:43;;;;;;;11.00;8.05;;;9.70;99.90;;;;;;5067863;28;20056;-63
2023/04/01 03:11:10;;;;;;;10.90;8.88;;;9.70;99.90;;;;;;5066755;28;20040;-63
2023/04/01 03:13:36;;;;;;;10.40;7.45;;;9.70;99.90;;;;;;5067760;28;20040;-63
2023/04/01 03:16:02;;;;;;;15.40;8.65;;;9.70;99.90;;;;;;5067002;28;20036;-63
2023/04/01 03:18:28;;;;;;;9.35;8.40;;;9.70;99.90;;;;;;5067475;28;20463;-63
2023/04/01 03:20:54;;;;;;;14.13;8.70;;;9.70;99.90;;;;;;5047726;28;20072;-63
2023/04/01 03:23:20;;;;;;;11.93;8.68;;;9.70;99.90;;;;;;5047860;28;20048;-63
2023/04/01 03:25:47;;;;;;;15.43;9.15;;;9.70;99.90;;;;;;5066959;28;20048;-63
2023/04/01 03:28:13;;;;;;;14.07;9.70;;;9.70;99.90;;;;;;5053245;28;20248;-63
2023/04/01 03:30:39;;;;;;;12.52;10.23;;;9.70;99.90;;;;;;5067489;28;20087;-63
2023/04/01 03:33:06;;;;;;;16.48;10.07;;;9.70;99.90;;;;;;5065893;28;20068;-64
2023/04/01 03:35:32;;;;;;;11.80;10.10;;;9.70;99.90;;;;;;5049053;28;20508;-63
2023/04/01 03:37:58;;;;;;;15.43;10.45;;;9.70;99.90;;;;;;5066905;28;20047;-63
2023/04/01 03:40:26;;;;;;;17.67;9.70;;;9.60;99.90;;;;;;5066701;28;20040;-63
2023/04/01 03:42:52;;;;;;;12.60;10.23;;;9.60;99.90;;;;;;5067290;28;20059;-63
2023/04/01 03:45:18;;;;;;;13.57;10.57;;;9.60;99.90;;;;;;5066020;28;20028;-63
2023/04/01 03:47:44;;;;;;;14.57;10.20;;;9.60;99.90;;;;;;5067310;28;20154;-63
2023/04/01 03:50:10;;;;;;;16.42;10.88;;;9.60;99.90;;;;;;5066677;28;20431;-63
2023/04/01 03:52:36;;;;;;;13.85;9.35;;;9.60;99.90;;;;;;5048974;28;20052;-63
2023/04/01 03:55:02;;;;;;;15.02;10.25;;;9.60;99.90;;;;;;5047834;28;20109;-63
2023/04/01 03:57:30;;;;;;;17.63;10.70;;;9.60;99.90;;;;;;5048549;28;20051;-63
2023/04/01 03:59:56;;;;;;;17.10;11.52;;;9.50;99.90;;;;;;5066991;28;20067;-63
2023/04/01 04:02:21;;;;;;;16.80;11.05;;;9.60;99.90;;;;;;5065692;28;20491;-63
2023/04/01 04:04:47;;;;;;;16.92;11.82;;;9.60;99.90;;;;;;5067272;28;20044;-63
2023/04/01 04:07:13;;;;;;;16.70;11.90;;;9.60;99.90;;;;;;5047963;28;20051;-63
2023/04/01 04:09:38;;;;;;;17.67;12.40;;;9.60;99.90;;;;;;5066551;28;20447;-63
2023/04/01 04:12:05;;;;;;;18.20;12.77;;;9.60;99.90;;;;;;5065867;28;20037;-63
2023/04/01 04:14:31;;;;;;;18.42;13.18;;;9.60;99.90;;;;;;5057841;28;20097;-63
2023/04/01 04:16:57;;;;;;;20.00;12.98;;;9.60;99.90;;;;;;5067882;28;20499;-63
2023/04/01 04:19:23;;;;;;;14.88;12.48;;;9.60;99.90;;;;;;5047890;28;20052;-63
2023/04/01 04:21:49;;;;;;;20.30;13.02;;;9.60;99.90;;;;;;5066700;28;20051;-63
2023/04/01 04:24:15;;;;;;;16.67;13.55;;;9.60;99.90;;;;;;5065560;28;20421;-64
2023/04/01 04:26:40;;;;;;;19.40;12.60;;;9.60;99.90;;;;;;5067443;28;20045;-63
2023/04/01 04:29:06;;;;;;;22.92;13.18;;;9.60;99.90;;;;;;5064017;28;20502;-63
2023/04/01 04:31:32;;;;;;;16.33;13.13;;;9.60;99.90;;;;;;5031384;28;20036;-63
2023/04/01 04:34:00;;;;;;;18.17;12.70;;;9.60;99.90;;;;;;5066364;28;20117;-63
2023/04/01 04:36:26;;;;;;;16.70;13.20;;;9.60;99.90;;;;;;5065768;28;20040;-63
2023/04/01 04:38:51;;;;;;;20.10;13.45;;;9.60;99.90;;;;;;5067078;28;20048;-63
2023/04/01 04:41:18;;;;;;;18.20;13.23;;;9.60;99.90;;;;;;5065520;28;20051;-63
2023/04/01 04:43:52;;;;;;;22.00;14.55;;;9.60;99.90;;;;;;5065863;28;20052;-63
2023/04/01 04:46:18;;;;;;;22.40;14.10;;;9.60;99.90;;;;;;5047713;28;20044;-63
2023/04/01 04:48:44;;;;;;;19.02;13.45;;;9.60;99.90;;;;;;5066758;28;20071;-63
2023/04/01 04:51:17;;;;;;;20.65;13.88;;;9.60;99.90;;;;;;5065979;28;20105;-63
2023/04/01 04:53:43;;;;;;;17.90;13.68;;;9.60;99.90;;;;;;5065679;28;20048;-63
2023/04/01 04:56:09;;;;;;;23.17;14.32;;;9.60;99.90;;;;;;5065997;28;20048;-63
2023/04/01 04:58:36;;;;;;;22.52;14.90;;;9.60;99.90;;;;;;5065737;28;20056;-63
2023/04/01 05:01:07;;;;;;;21.13;15.85;;;9.60;99.90;;;;;;5065990;28;20129;-63
2023/04/01 05:03:33;;;;;;;19.55;13.90;;;9.60;99.90;;;;;;5065996;28;20499;-62
2023/04/01 05:05:58;;;;;;;22.45;14.70;;;9.60;99.90;;;;;;5065647;28;20036;-63
2023/04/01 05:08:24;;;;;;;20.98;14.85;;;9.60;99.90;;;;;;5047580;28;20128;-63
2023/04/01 05:10:50;;;;;;;27.73;15.10;;;9.60;99.90;;;;;;5066063;28;20036;-63
2023/04/01 05:13:15;;;;;;;19.85;14.65;;;9.60;99.90;;;;;;5066232;28;20043;-63
2023/04/01 05:15:41;;;;;;;21.55;14.90;;;9.60;99.90;;;;;;5068648;28;20039;-63
2023/04/01 05:18:07;;;;;;;19.48;14.18;;;9.60;99.90;;;;;;5038410;28;20463;-63
2023/04/01 05:20:32;;;;;;;17.90;15.30;;;9.50;99.90;;;;;;5069342;28;20412;-63
2023/04/01 05:22:59;;;;;;;19.50;14.70;;;9.60;99.90;;;;;;5069431;28;20487;-63
2023/04/01 05:25:25;;;;;;;19.27;14.68;;;9.50;99.90;;;;;;5068818;28;20032;-63
2023/04/01 05:27:50;;;;;;;22.05;14.32;;;9.50;99.90;;;;;;5069176;28;20037;-63
2023/04/01 05:30:16;;;;;;;24.25;14.57;;;9.50;99.90;;;;;;5068927;28;20541;-63
2023/04/01 05:32:43;;;;;;;25.50;14.95;;;9.60;99.90;;;;;;5050263;28;20090;-63
2023/04/01 05:35:09;;;;;;;28.67;15.98;;;9.60;99.90;;;;;;5070240;28;20453;-63
2023/04/01 05:37:36;;;;;;;18.55;14.95;;;9.50;99.90;;;;;;5050718;28;20044;-63
2023/04/01 05:40:03;;;;;;;23.15;15.98;;;9.60;99.90;;;;;;5069336;28;20044;-63
2023/04/01 05:42:28;;;;;;;28.95;18.70;;;9.60;99.90;;;;;;5068877;28;20036;-63
2023/04/01 05:44:55;;;;;;;23.73;16.50;;;9.60;99.90;;;;;;5069331;28;20059;-63
2023/04/01 05:47:21;;;;;;;27.90;17.02;;;9.60;99.90;;;;;;5069117;28;20048;-63
2023/04/01 05:49:47;;;;;;;21.85;16.38;;;9.60;99.90;;;;;;5068993;28;20123;-63
2023/04/01 05:52:13;;;;;;;27.17;17.58;;;9.60;99.90;;;;;;5068753;28;20483;-63
2023/04/01 05:54:38;;;;;;;29.33;17.67;;;9.60;99.90;;;;;;5068635;28;20036;-63
2023/04/01 05:57:04;;;;;;;22.90;17.85;;;9.70;99.90;;;;;;5069419;28;20049;-63
2023/04/01 05:59:31;;;;;;;24.73;17.58;;;9.70;99.90;;;;;;5050823;28;20403;-63
2023/04/01 06:01:57;;;;;;;25.25;17.95;;;9.70;99.90;;;;;;5068331;28;20385;-63
2023/04/01 06:04:24;;;;;;;26.02;17.60;;;9.80;99.90;;;;;;5068455;28;20120;-63
2023/04/01 06:06:51;;;;;;;25.25;18.25;;;9.80;99.90;;;;;;5067582;28;20051;-63
2023/04/01 06:09:23;;;;;;;32.75;19.08;;;9.80;99.90;;;;;;5068945;28;20542;-63
2023/04/01 06:12:00;;;;;;;24.70;17.63;;;9.80;99.90;;;;;;5068528;28;20383;-63
2023/04/01 06:14:49;;;;;;;31.15;18.52;;;9.80;99.90;;;;;;5067767;28;20044;-63
2023/04/01 06:17:52;;;;;;;26.83;18.23;;;9.80;99.90;;;;;;5063286;28;20114;-63
2023/04/01 06:20:42;;;;;;;34.13;19.60;;;9.90;99.90;;;;;;5048996;28;20088;-62
2023/04/01 06:23:49;;;;;;;28.13;18.90;;;9.90;99.90;;;;;;5059400;28;20119;-63
2023/04/01 06:26:38;;;;;;;24.65;17.98;;;9.90;99.90;;;;;;4959717;28;20046;-63
2023/04/01 06:29:19;;;;;;;28.90;18.83;;;10.00;99.90;;;;;;4983535;28;20054;-63
2023/04/01 06:32:06;;;;;;;25.58;18.25;;;10.00;99.90;;;;;;5021218;28;20087;-63
2023/04/01 06:34:52;;;;;;;24.02;17.75;;;9.90;99.90;;;;;;5067703;28;20041;-63
2023/04/01 06:37:39;;;;;;;24.00;17.85;;;10.00;99.90;;;;;;5067968;28;20037;-62
2023/04/01 06:40:19;;;;;;;22.40;16.38;;;10.00;99.90;;;;;;5068686;28;20044;-63
2023/04/01 06:43:09;;;;;;;25.52;18.13;;;10.00;99.90;;;;;;5068018;28;20048;-62
2023/04/01 06:45:39;;;;;;;27.42;18.70;;;10.00;99.90;;;;;;5043233;28;20094;-63
2023/04/01 06:48:37;;;;;;;25.70;19.48;;;10.10;99.90;;;;;;5068402;28;20045;-63
2023/04/01 06:51:46;;;;;;;30.30;19.38;;;10.20;99.90;;;;;;5044816;28;20181;-63
2023/04/01 06:54:21;;;;;;;29.37;19.57;;;10.20;99.90;;;;;;5046087;28;20530;-62
2023/04/01 06:56:52;;;;;;;32.92;18.95;;;10.20;99.90;;;;;;5066029;28;20109;-63
2023/04/01 06:59:38;;;;;;;26.50;18.92;;;10.20;99.90;;;;;;5067373;28;20129;-63
2023/04/01 07:02:10;;;;;;;34.10;19.05;;;10.10;99.90;;;;;;5048220;28;20482;-63
2023/04/01 07:04:42;;;;;;;29.38;18.23;;;10.20;99.90;;;;;;5042713;28;20044;-63
2023/04/01 07:07:20;;;;;;;33.05;19.67;;;10.30;99.90;;;;;;5067396;28;20067;-63
2023/04/01 07:09:53;;;;;;;26.75;19.15;;;10.30;99.90;;;;;;5067298;28;20059;-63
2023/04/01 07:12:31;;;;;;;28.48;18.80;;;10.40;99.90;;;;;;5064081;28;20028;-63
2023/04/01 07:15:03;;;;;;;25.60;18.30;;;10.30;99.90;;;;;;5065025;28;20475;-63
2023/04/01 07:17:33;;;;;;;28.42;18.85;;;10.30;99.90;;;;;;5032250;28;20521;-63
2023/04/01 07:20:05;;;;;;;;;;;10.20;99.90;;;;;;5065789;28;20063;-63
2023/04/01 07:22:41;;;;;;;23.60;16.23;;;10.30;99.90;;;;;;5047376;28;19931;-63
2023/04/01 07:25:15;;;;;;;26.80;17.70;;;10.30;99.90;;;;;;5059175;28;20048;-63
2023/04/01 07:27:42;;;;;;;23.60;16.67;;;10.40;99.90;;;;;;5058732;28;20507;-63
2023/04/01 07:30:15;;;;;;;25.98;17.52;;;10.50;99.90;;;;;;5065861;28;20036;-63
2023/04/01 07:32:51;;;;;;;32.30;16.83;;;10.70;99.90;;;;;;5061857;28;20119;-63
2023/04/01 07:35:38;;;;;;;24.48;17.45;;;10.90;99.90;;;;;;5059459;28;20044;-63
2023/04/01 07:38:13;;;;;;;30.65;16.77;;;11.00;99.90;;;;;;5063975;28;20399;-63
2023/04/01 07:40:54;;;;;;;22.50;16.00;;;10.90;99.90;;;;;;5067277;28;20123;-63
2023/04/01 07:44:01;;;;;;;21.42;16.20;;;10.90;99.90;;;;;;5066593;28;20040;-63
2023/04/01 07:47:05;;;;;;;20.45;15.93;;;10.90;99.90;;;;;;5031815;28;20518;-63
2023/04/01 07:50:04;;;;;;;21.98;16.23;;;10.90;99.90;;;;;;5048467;28;20051;-63
2023/04/01 07:52:45;;;;;;;24.30;16.35;;;10.90;99.90;;;;;;5058330;28;20044;-63
2023/04/01 07:55:34;;;;;;;22.23;14.57;;;10.90;99.90;;;;;;5063727;28;20086;-63
2023/04/01 07:58:35;;;;;;;16.80;13.85;;;10.90;99.90;;;;;;5066930;28;20052;-63
2023/04/01 08:01:07;;;;;;;16.95;13.45;;;11.00;99.90;;;;;;5058104;28;20095;-63
2023/04/01 08:03:32;;;;;;;15.65;13.00;;;11.10;99.90;;;;;;5043179;28;20494;-63
2023/04/01 08:06:19;;;;;;;17.02;12.55;;;11.10;99.90;;;;;;5065831;28;20028;-63
2023/04/01 08:08:52;;;;;;;13.27;11.38;;;11.20;99.90;;;;;;5065341;28;20060;-63
2023/04/01 08:11:17;;;;;;;16.48;12.80;;;11.10;99.90;;;;;;5066333;28;20394;-62
2023/04/01 08:13:53;;;;;;;13.02;11.68;;;11.10;99.90;;;;;;5065466;28;20053;-62
2023/04/01 08:16:52;;;;;;;11.80;10.60;;;11.10;99.90;;;;;;5065630;28;20036;-62
2023/04/01 08:19:44;;;;;;;15.80;10.02;;;11.10;99.90;;;;;;5065052;28;20060;-62
2023/04/01 08:22:28;;;;;;;10.40;9.40;;;11.20;99.90;;;;;;5066634;28;20091;-62
2023/04/01 08:24:59;;;;;;;10.27;8.35;;;11.40;99.90;;;;;;5054785;28;20064;-63
2023/04/01 08:27:33;;;;;;;9.80;8.10;;;11.40;99.90;;;;;;5055160;28;20369;-63
2023/04/01 08:30:05;;;;;;;9.25;7.60;;;11.30;99.90;;;;;;5066070;28;20071;-63
2023/04/01 08:32:41;;;;;;;9.65;6.43;;;11.30;99.90;;;;;;5057549;28;20080;-63
2023/04/01 08:35:09;;;;;;;5.70;4.63;;;11.20;99.90;;;;;;5058855;28;20418;-63
2023/04/01 08:37:39;;;;;;;3.53;3.20;;;10.80;99.90;;;;;;5040492;28;20128;-63
2023/04/01 08:40:42;;;;;;;2.63;2.42;;;10.60;99.90;;;;;;5054269;28;20412;-63
2023/04/01 08:43:30;;;;;;;2.38;2.05;;;10.30;99.90;;;;;;5049393;28;20136;-63
2023/04/01 08:46:11;;;;;;;2.38;2.17;;;10.20;99.90;;;;;;5056811;28;20330;-63
2023/04/01 08:48:45;;;;;;;2.10;1.70;;;9.90;99.90;;;;;;5052235;28;20083;-63
2023/04/01 08:51:32;;;;;;;2.70;1.95;;;9.90;99.90;;;;;;5053795;28;20399;-63
2023/04/01 08:54:33;;;;;;;1.55;1.23;;;9.80;99.90;;;;;;5063256;28;20421;-63
2023/04/01 08:57:25;;;;;;;2.55;1.50;;;9.80;99.90;;;;;;5067437;28;20067;-62
2023/04/01 09:00:05;;;;;;;1.85;1.10;;;9.70;99.90;;;;;;5049525;28;20049;-63
2023/04/01 09:02:51;;;;;;;2.28;1.55;;;9.70;99.90;;;;;;5046704;28;20080;-63
2023/04/01 09:05:38;;;;;;;1.52;1.30;;;9.80;99.90;;;;;;5069028;28;20048;-63
2023/04/01 09:08:32;;;;;;;1.48;1.27;;;9.80;99.90;;;;;;5069581;28;20125;-63
2023/04/01 09:11:20;;;;;;;3.13;1.25;;;9.80;99.90;;;;;;5051101;28;20048;-63
2023/04/01 09:14:12;;;;;;;2.17;0.85;;;9.80;99.90;;;;;;5050981;28;20560;-63
2023/04/01 09:17:00;;;;;;;0.82;0.80;;;9.80;99.90;;;;;;5011298;28;20148;-63
2023/04/01 09:19:49;;;;;;;0.65;0.65;;;9.70;99.90;;;;;;5066325;28;20063;-63
2023/04/01 09:22:21;;;;;;;2.90;0.88;;;9.70;99.90;;;;;;5051594;28;20056;-62
2023/04/01 09:25:15;;;;;;;4.00;1.05;;;9.60;99.90;;;;;;5068708;28;20525;-63
2023/04/01 09:28:10;;;;;;;1.55;0.80;;;9.60;99.90;;;;;;5065292;28;20534;-63
2023/04/01 09:30:52;;;;;;;2.25;0.98;;;9.60;99.90;;;;;;5059191;28;20056;-63
2023/04/01 09:35:50;;;;;;;1.00;0.90;;;9.60;99.90;;;;;;5043085;28;20321;-63
2023/04/01 09:38:28;;;;;;;0.73;0.70;;;9.60;99.90;;;;;;5042051;28;20042;-63
2023/04/01 09:41:03;;;;;;;1.92;1.10;;;9.60;99.90;;;;;;5035918;28;20045;-63
2023/04/01 09:43:58;;;;;;;1.30;0.55;;;9.50;99.90;;;;;;5032928;28;20448;-63
2023/04/01 09:46:39;;;;;;;1.20;0.70;;;9.50;99.90;;;;;;5047747;28;20468;-64
2023/04/01 09:49:25;;;;;;;1.52;0.73;;;9.40;99.90;;;;;;4960276;28;20061;-63
2023/04/01 09:52:06;;;;;;;2.72;0.70;;;9.50;99.90;;;;;;5028677;28;21122;-63
2023/04/01 09:54:31;;;;;;;1.77;1.02;;;9.60;99.90;;;;;;5029799;28;20049;-63
2023/04/01 09:57:06;;;;;;;2.10;0.80;;;9.70;99.90;;;;;;5029687;28;20522;-64
2023/04/01 10:00:03;;;;;;;1.40;0.50;;;9.70;99.90;;;;;;5029898;28;20088;-63
2023/04/01 10:02:50;;;;;;;1.50;0.75;;;9.60;99.90;;;;;;5026001;28;20167;-63
2023/04/01 10:06:02;;;;;;;0.45;0.38;;;9.60;99.90;;;;;;5022491;28;20045;-63
2023/04/01 10:09:01;;;;;;;1.00;0.52;;;9.60;99.90;;;;;;5003164;28;20495;-63
2023/04/01 10:12:08;;;;;;;0.82;0.50;;;9.60;99.90;;;;;;5028201;28;20066;-63
2023/04/01 10:14:56;;;;;;;1.92;0.63;;;9.60;99.90;;;;;;5030663;28;20057;-63
2023/04/01 10:17:56;;;;;;;0.57;0.50;;;9.60;99.90;;;;;;5015106;28;20106;-63
2023/04/01 10:21:14;;;;;;;3.53;0.85;;;9.50;99.90;;;;;;5018703;28;20045;-63
2023/04/01 10:23:49;;;;;;;3.08;1.00;;;9.50;99.90;;;;;;4995274;28;20061;-63
2023/04/01 10:26:38;;;;;;;0.80;0.80;;;9.50;99.90;;;;;;5029758;28;20052;-63
2023/04/01 10:29:34;;;;;;;1.83;0.70;;;9.40;99.90;;;;;;5031053;28;20051;-63
2023/04/01 10:32:15;;;;;;;1.58;0.77;;;9.50;99.90;;;;;;5027236;28;20468;-63
2023/04/01 10:34:47;;;;;;;1.23;0.80;;;9.50;99.90;;;;;;5031029;28;20057;-63
2023/04/01 10:37:52;;;;;;;1.30;0.60;;;9.60;99.90;;;;;;5029658;28;20045;-63
2023/04/01 10:41:13;;;;;;;1.60;0.90;;;9.60;99.90;;;;;;4986775;28;20052;-63
2023/04/01 10:44:10;;;;;;;2.40;0.50;;;9.70;99.90;;;;;;4958042;28;20495;-63
2023/04/01 10:47:02;;;;;;;3.58;0.80;;;9.70;99.90;;;;;;5027310;28;20045;-63
2023/04/01 10:50:13;;;;;;;1.05;0.70;;;9.70;99.90;;;;;;5028756;28;20491;-63
2023/04/01 10:52:41;;;;;;;1.17;0.70;;;9.70;99.90;;;;;;5028556;28;20045;-64
2023/04/01 10:55:37;;;;;;;0.68;0.68;;;9.70;99.90;;;;;;5027181;28;20053;-63
2023/04/01 10:58:37;;;;;;;0.70;0.70;;;9.60;99.90;;;;;;5027751;28;20077;-64
2023/04/01 11:01:22;;;;;;;2.30;0.50;;;9.50;99.90;;;;;;5023410;28;20096;-63
2023/04/01 11:04:25;;;;;;;1.25;0.77;;;9.50;99.90;;;;;;5028176;28;20091;-63
2023/04/01 11:07:36;;;;;;;0.70;0.70;;;9.50;99.90;;;;;;5021658;28;20053;-64
2023/04/01 11:10:23;;;;;;;0.80;0.60;;;9.50;99.90;;;;;;5025065;28;20060;-63
2023/04/01 11:13:27;;;;;;;1.58;0.77;;;9.50;99.90;;;;;;5003151;28;20124;-64
2023/04/01 11:16:06;;;;;;;0.75;0.52;;;9.50;99.90;;;;;;5041468;28;20087;-63
2023/04/01 11:18:59;;;;;;;1.20;0.60;;;9.50;99.90;;;;;;5029592;28;20049;-64
2023/04/01 11:21:37;;;;;;;0.60;0.60;;;9.50;99.90;;;;;;5038519;28;20048;-63
2023/04/01 11:24:20;;;;;;;1.65;0.70;;;9.60;99.90;;;;;;5032179;28;20132;-63
2023/04/01 11:27:07;;;;;;;2.53;0.98;;;9.60;99.90;;;;;;5023409;28;20045;-63
2023/04/01 11:30:29;;;;;;;0.80;0.80;;;9.60;99.90;;;;;;5030574;28;20092;-64
2023/04/01 11:33:03;;;;;;;1.17;0.80;;;9.50;99.90;;;;;;4973509;28;20065;-64
2023/04/01 11:35:50;;;;;;;1.05;0.77;;;9.60;99.90;;;;;;5005569;28;20483;-63
2023/04/01 11:38:46;;;;;;;0.60;0.60;;;9.60;99.90;;;;;;5038867;28;20046;-63
2023/04/01 11:41:35;;;;;;;2.08;0.75;;;9.50;99.90;;;;;;5007139;28;20058;-63
2023/04/01 11:44:24;;;;;;;2.55;0.90;;;9.60;99.90;;;;;;4998613;28;20046;-63
2023/04/01 11:47:00;;;;;;;3.05;0.60;;;9.40;99.90;;;;;;5004811;28;20144;-63
2023/04/01 11:50:02;;;;;;;0.93;0.70;;;9.40;99.90;;;;;;5009933;28;20727;-64
2023/04/01 11:53:02;;;;;;;1.00;0.47;;;9.40;99.90;;;;;;5006662;28;20368;-63
2023/04/01 11:55:30;;;;;;;1.10;0.70;;;9.40;99.90;;;;;;5012573;28;20498;-63
2023/04/01 11:58:31;;;;;;;0.60;0.60;;;9.40;99.90;;;;;;5021426;28;20076;-63
2023/04/01 12:00:59;;;;;;;0.60;0.60;;;9.40;99.90;;;;;;5037386;28;20061;-63
2023/04/01 12:03:28;;;;;;;2.55;0.68;;;9.50;99.90;;;;;;5010921;28;20396;-63
2023/04/01 12:06:15;;;;;;;0.60;0.60;;;9.70;99.90;;;;;;5006925;28;20050;-63
2023/04/01 12:08:59;;;;;;;2.58;0.80;;;9.60;99.90;;;;;;5007464;28;20092;-63
2023/04/01 12:11:28;;;;;;;1.75;0.70;;;9.60;99.90;;;;;;4995789;28;20046;-63
2023/04/01 12:14:31;;;;;;;0.85;0.60;;;9.60;99.90;;;;;;5008187;28;20491;-63
2023/04/01 12:17:00;;;;;;;2.10;0.65;;;9.60;99.90;;;;;;5007491;28;20049;-63
2023/04/01 12:19:56;;;;;;;0.95;0.60;;;9.60;99.90;;;;;;5008171;28;20101;-63
2023/04/01 12:22:40;;;;;;;0.65;0.60;;;9.50;99.90;;;;;;5006950;28;20431;-63
2023/04/01 12:25:24;;;;;;;0.73;0.57;;;9.60;99.90;;;;;;5002882;28;20451;-63
2023/04/01 12:27:56;;;;;;;0.60;0.60;;;9.60;99.90;;;;;;5009636;28;20426;-63
2023/04/01 12:30:55;;;;;;;4.68;0.75;;;9.50;99.90;;;;;;5017792;28;20049;-64
2023/04/01 12:33:29;;;;;;;0.52;0.47;;;9.60;99.90;;;;;;5005008;28;20046;-63
2023/04/01 12:36:35;;;;;;;0.70;0.70;;;9.60;99.90;;;;;;5031144;28;20100;-63
2023/04/01 12:39:22;;;;;;;0.65;0.65;;;9.60;99.90;;;;;;4968977;28;20555;-64
2023/04/01 12:42:16;;;;;;;2.08;0.60;;;9.60;99.90;;;;;;5037232;28;20056;-64
2023/04/01 12:44:58;;;;;;;3.00;0.82;;;9.70;99.90;;;;;;5026695;28;20042;-63
2023/04/01 12:47:34;;;;;;;0.68;0.60;;;9.70;99.90;;;;;;5038723;28;20080;-64
2023/04/01 12:50:18;;;;;;;1.40;1.00;;;9.70;99.90;;;;;;5019831;28;20509;-64
2023/04/01 12:53:05;;;;;;;0.85;0.65;;;9.70;99.90;;;;;;5024550;28;20099;-63
2023/04/01 12:55:49;;;;;;;0.70;0.70;;;9.70;99.90;;;;;;5024496;28;20056;-64
2023/04/01 12:58:21;;;;;;;0.47;0.47;;;9.70;99.90;;;;;;5013791;28;20049;-63
2023/04/01 13:00:49;;;;;;;2.40;0.80;;;9.60;99.90;;;;;;5033274;28;20095;-63
2023/04/01 13:03:21;;;;;;;0.30;0.30;;;9.70;99.90;;;;;;5021674;28;20054;-64
2023/04/01 13:06:18;;;;;;;1.02;0.45;;;9.70;99.90;;;;;;5026843;28;20049;-63
2023/04/01 13:09:05;;;;;;;0.55;0.43;;;9.70;99.90;;;;;;5033225;28;20095;-63
2023/04/01 13:11:40;;;;;;;1.08;0.55;;;9.80;99.90;;;;;;5035829;28;20049;-63
2023/04/01 13:14:08;;;;;;;2.75;0.68;;;9.80;99.90;;;;;;5035368;28;20438;-63
2023/04/01 13:16:53;;;;;;;0.82;0.52;;;9.80;99.90;;;;;;5034559;28;20077;-64
2023/04/01 13:19:40;;;;;;;0.60;0.60;;;9.80;99.90;;;;;;5038463;28;20052;-63
2023/04/01 13:22:36;;;;;;;2.30;0.68;;;9.80;99.90;;;;;;5039190;28;20098;-64
2023/04/01 13:25:32;;;;;;;1.65;0.70;;;9.70;99.90;;;;;;5026697;28;20673;-63
2023/04/01 13:28:14;;;;;;;0.95;0.60;;;9.70;99.90;;;;;;5032564;28;20447;-63
2023/04/01 13:30:52;;;;;;;4.63;0.63;;;9.60;99.90;;;;;;5022907;28;20146;-63
2023/04/01 13:33:32;;;;;;;0.50;0.50;;;9.60;99.90;;;;;;5039651;28;20380;-63
2023/04/01 13:36:17;;;;;;;0.40;0.40;;;9.60;99.90;;;;;;5029460;28;20049;-64
2023/04/01 13:39:30;;;;;;;0.50;0.50;;;9.50;99.90;;;;;;5006046;28;20467;-64
2023/04/01 13:41:59;;;;;;;0.50;0.43;;;9.50;99.90;;;;;;4994346;28;20507;-64